Time;durP1;ratioP1;P1;durP2;ratioP2;P2;SDS_P1;SDS_P2;PMS_P1;PMS_P2;Temp;Humidity;BMP_temperature;BMP_pressure;BME280_temperature;BME280_humidity;BME280_pressure;Samples;Min_cycle;Max_cycle;Signal;HPM_P1;HPM_P2
2022/07/23 06:00:40;;;;;;;4.30;3.27;;;;;;;;;;10540506;28;20407;-80
2022/07/23 06:05:41;;;;;;;3.50;3.20;;;;;;;;;;10520154;28;20791;-80
2022/07/23 06:10:42;;;;;;;3.20;2.90;;;;;;;;;;10539410;28;20028;-78
2022/07/23 06:15:44;;;;;;;3.40;2.90;;;;;;;;;;10521161;28;20024;-78
2022/07/23 06:20:45;;;;;;;3.45;2.58;;;;;;;;;;10521517;28;20074;-78
2022/07/23 06:25:46;;;;;;;4.15;3.15;;;;;;;;;;10520375;28;20028;-78
2022/07/23 06:30:48;;;;;;;5.22;3.92;;;;;;;;;;10520005;28;20028;-79
2022/07/23 06:35:49;;;;;;;4.47;3.65;;;;;;;;;;10520514;28;20514;-79
2022/07/23 06:40:50;;;;;;;2.80;2.33;;;;;;;;;;10520906;28;20051;-79
2022/07/23 06:45:51;;;;;;;3.38;2.60;;;;;;;;;;10520978;28;20479;-79
2022/07/23 06:50:52;;;;;;;3.92;3.30;;;;;;;;;;10520982;28;20024;-79
2022/07/23 06:55:53;;;;;;;4.03;3.15;;;;;;;;;;10519775;28;20082;-79
2022/07/23 07:00:56;;;;;;;7.88;5.97;;;;;;;;;;10519384;28;20026;-80
2022/07/23 07:05:57;;;;;;;3.67;2.47;;;;;;;;;;10518171;28;20077;-79
2022/07/23 07:10:58;;;;;;;5.82;5.18;;;;;;;;;;10496376;28;20097;-79
2022/07/23 07:15:59;;;;;;;5.20;4.57;;;;;;;;;;10509260;28;20115;-79
2022/07/23 07:21:00;;;;;;;5.15;2.88;;;;;;;;;;10491721;28;20024;-80
2022/07/23 07:26:01;;;;;;;4.65;3.55;;;;;;;;;;10526028;22;20051;-82
2022/07/23 07:31:03;;;;;;;6.10;5.05;;;;;;;;;;10450154;28;20038;-82
2022/07/23 07:36:04;;;;;;;7.20;5.15;;;;;;;;;;10440849;28;20041;-83
2022/07/23 07:41:09;;;;;;;9.10;5.55;;;;;;;;;;10473546;28;20021;-83
2022/07/23 07:46:11;;;;;;;5.28;3.38;;;;;;;;;;10475708;28;20025;-83
2022/07/23 07:51:12;;;;;;;4.55;3.85;;;;;;;;;;10470363;28;20111;-83
2022/07/23 07:56:13;;;;;;;6.88;4.13;;;;;;;;;;10487686;28;20495;-83
2022/07/23 08:01:14;;;;;;;4.50;4.10;;;;;;;;;;10466271;28;20029;-83
2022/07/23 08:06:15;;;;;;;7.03;4.30;;;;;;;;;;10465816;28;20052;-83
2022/07/23 08:11:16;;;;;;;4.70;3.50;;;;;;;;;;10467163;28;20060;-84
2022/07/23 08:16:17;;;;;;;5.05;3.13;;;;;;;;;;10464724;28;20021;-83
2022/07/23 08:21:23;;;;;;;4.65;2.50;;;;;;;;;;10487262;28;20033;-84
2022/07/23 08:26:24;;;;;;;6.07;3.53;;;;;;;;;;10471848;28;20040;-83
2022/07/23 08:31:25;;;;;;;5.00;4.00;;;;;;;;;;10474260;28;20021;-82
2022/07/23 08:36:31;;;;;;;5.15;3.50;;;;;;;;;;10493948;28;20508;-83
2022/07/23 08:41:33;;;;;;;3.45;3.10;;;;;;;;;;10472174;28;20025;-85
2022/07/23 08:46:34;;;;;;;3.90;2.70;;;;;;;;;;10464441;28;20087;-83
2022/07/23 08:51:35;;;;;;;4.63;2.97;;;;;;;;;;10453961;28;20402;-83
2022/07/23 08:56:38;;;;;;;4.93;3.40;;;;;;;;;;10453235;28;20029;-85
2022/07/23 09:02:02;;;;;;;6.35;4.20;;;;;;;;;;10437125;28;20060;-86
2022/07/23 09:12:34;;;;;;;3.85;3.30;;;;;;;;;;10475840;28;20074;-86
2022/07/23 09:17:42;;;;;;;3.42;3.00;;;;;;;;;;10449431;28;20025;-86
2022/07/23 09:22:51;;;;;;;4.53;2.33;;;;;;;;;;10443324;28;20036;-85
2022/07/23 09:27:54;;;;;;;2.08;1.77;;;;;;;;;;10466248;28;20025;-88
2022/07/23 09:33:07;;;;;;;2.60;2.22;;;;;;;;;;10472602;28;20051;-87
2022/07/23 09:38:08;;;;;;;6.60;5.00;;;;;;;;;;10457941;28;20025;-87
2022/07/23 09:43:09;;;;;;;2.95;2.63;;;;;;;;;;10456454;28;20075;-85
2022/07/23 09:48:17;;;;;;;7.28;3.53;;;;;;;;;;10449914;28;20083;-85
2022/07/23 09:53:28;;;;;;;4.07;3.58;;;;;;;;;;10450288;28;20048;-85
2022/07/23 09:58:31;;;;;;;2.85;2.08;;;;;;;;;;10454619;28;20021;-85
2022/07/23 10:03:32;;;;;;;4.85;3.30;;;;;;;;;;10454563;28;20063;-84
2022/07/23 10:08:33;;;;;;;3.20;2.50;;;;;;;;;;10448859;28;20387;-85
2022/07/23 10:18:36;;;;;;;4.95;2.55;;;;;;;;;;10470157;28;20088;-85
2022/07/23 10:23:42;;;;;;;4.00;2.10;;;;;;;;;;10450112;28;20141;-85
2022/07/23 10:29:07;;;;;;;3.28;2.67;;;;;;;;;;10448800;28;20037;-84
2022/07/23 10:34:14;;;;;;;2.97;2.13;;;;;;;;;;10456480;28;20021;-84
2022/07/23 10:39:18;;;;;;;2.97;2.22;;;;;;;;;;10444560;28;20029;-85
2022/07/23 10:44:23;;;;;;;4.50;2.10;;;;;;;;;;10447427;28;20025;-85
2022/07/23 10:49:30;;;;;;;4.60;2.00;;;;;;;;;;10452501;28;20519;-86
2022/07/23 10:54:31;;;;;;;6.57;4.90;;;;;;;;;;10450845;28;20024;-85
2022/07/23 10:59:52;;;;;;;4.13;2.55;;;;;;;;;;10474466;28;20131;-87
2022/07/23 11:04:54;;;;;;;2.80;2.33;;;;;;;;;;10493963;28;20017;-85
2022/07/23 11:09:55;;;;;;;5.13;3.00;;;;;;;;;;10469613;28;20082;-86
2022/07/23 11:15:15;;;;;;;3.40;2.50;;;;;;;;;;10488927;28;20063;-85
2022/07/23 11:20:16;;;;;;;;;;;;;;;;;;10496192;28;20035;-85
2022/07/23 11:25:23;;;;;;;1.63;1.48;;;;;;;;;;10477293;28;19951;-85
2022/07/23 11:30:27;;;;;;;4.28;1.70;;;;;;;;;;10489887;28;20041;-85
2022/07/23 11:35:30;;;;;;;3.53;2.35;;;;;;;;;;10470775;28;20478;-85
2022/07/23 11:40:31;;;;;;;5.20;3.60;;;;;;;;;;10493484;28;20021;-85
2022/07/23 11:45:37;;;;;;;3.00;2.22;;;;;;;;;;10474157;28;20036;-86
2022/07/23 11:50:38;;;;;;;3.58;2.22;;;;;;;;;;10481139;28;20037;-83
2022/07/23 11:55:39;;;;;;;3.80;2.28;;;;;;;;;;10483187;28;20029;-83
2022/07/23 12:00:41;;;;;;;3.70;2.13;;;;;;;;;;10494107;28;20025;-84
2022/07/23 12:05:42;;;;;;;7.13;4.80;;;;;;;;;;10467060;28;20554;-85
2022/07/23 12:10:44;;;;;;;3.58;2.95;;;;;;;;;;10471808;28;20029;-85
2022/07/23 12:15:47;;;;;;;3.03;1.70;;;;;;;;;;10471632;28;20021;-85
2022/07/23 12:20:50;;;;;;;2.70;1.77;;;;;;;;;;10471804;28;20024;-84
2022/07/23 12:25:53;;;;;;;5.25;1.67;;;;;;;;;;10469011;28;20380;-84
2022/07/23 12:30:56;;;;;;;3.42;1.77;;;;;;;;;;10492532;28;20013;-85
2022/07/23 12:36:01;;;;;;;2.88;1.90;;;;;;;;;;10472143;28;20029;-84
2022/07/23 12:41:04;;;;;;;2.75;1.58;;;;;;;;;;10461686;28;20097;-85
2022/07/23 12:46:06;;;;;;;3.30;1.83;;;;;;;;;;10443183;28;20029;-86
2022/07/23 12:51:09;;;;;;;2.00;1.67;;;;;;;;;;10459428;28;20364;-85
